createdAt,value
2023-04-18T00:02:13.614Z,5.80
2023-04-18T00:12:15.146Z,5.40
2023-04-18T00:22:16.583Z,4.87
2023-04-18T00:32:18.119Z,4.50
2023-04-18T00:42:22.849Z,5.22
2023-04-18T00:52:25.500Z,5.80
2023-04-18T01:02:27.870Z,4.57
2023-04-18T01:12:29.599Z,4.73
2023-04-18T01:22:32.132Z,4.80
2023-04-18T01:32:33.711Z,4.45
2023-04-18T01:42:35.200Z,4.93
2023-04-18T01:52:36.657Z,4.50
2023-04-18T02:02:38.324Z,4.57
2023-04-18T02:12:39.884Z,5.07
2023-04-18T02:22:41.394Z,4.55
2023-04-18T02:32:42.913Z,4.27
2023-04-18T02:42:44.476Z,4.03
2023-04-18T02:52:45.951Z,4.53
2023-04-18T03:02:48.397Z,4.47
2023-04-18T03:12:49.957Z,6.18
2023-04-18T03:22:51.441Z,6.63
2023-04-18T03:32:53.142Z,5.30
2023-04-18T03:42:54.667Z,4.50
2023-04-18T03:52:56.175Z,5.73
2023-04-18T04:02:57.889Z,4.07
2023-04-18T04:12:59.548Z,4.90
2023-04-18T04:23:01.013Z,6.23
2023-04-18T04:33:02.452Z,6.73
2023-04-18T04:43:04.015Z,9.30
2023-04-18T04:53:05.689Z,7.88
2023-04-18T05:03:07.391Z,5.93
2023-04-18T05:13:09.040Z,8.03
2023-04-18T05:23:10.546Z,13.47
2023-04-18T05:33:12.060Z,9.77
2023-04-18T05:43:13.626Z,8.63
2023-04-18T05:53:15.264Z,9.60
2023-04-18T06:03:17.132Z,6.53
2023-04-18T06:13:18.937Z,7.43
2023-04-18T06:23:20.565Z,8.53
2023-04-18T06:33:22.018Z,10.32
2023-04-18T06:43:23.667Z,8.67
2023-04-18T06:53:25.226Z,9.03
2023-04-18T07:03:26.767Z,12.63
2023-04-18T07:13:28.352Z,12.37
2023-04-18T07:23:29.817Z,10.20
2023-04-18T07:33:31.471Z,10.57
2023-04-18T07:43:33.095Z,8.30
2023-04-18T07:53:34.621Z,10.60
2023-04-18T08:03:36.251Z,9.63
2023-04-18T08:13:38.037Z,10.95
2023-04-18T08:23:39.633Z,10.60
2023-04-18T08:33:41.780Z,14.27
2023-04-18T08:43:48.052Z,10.60
2023-04-18T08:53:49.707Z,10.37
2023-04-18T09:03:51.372Z,12.25
2023-04-18T09:13:53.257Z,11.67
2023-04-18T09:24:15.948Z,9.10
2023-04-18T09:34:20.872Z,9.77
2023-04-18T09:44:22.478Z,7.73
2023-04-18T09:54:25.204Z,9.32
2023-04-18T10:04:28.241Z,9.20
2023-04-18T10:14:34.820Z,9.23
2023-04-18T10:24:46.578Z,8.90
2023-04-18T10:34:49.457Z,8.27
2023-04-18T10:45:21.688Z,8.15
2023-04-18T10:55:28.836Z,9.80
2023-04-18T11:05:30.387Z,9.13
2023-04-18T11:15:31.944Z,8.93
2023-04-18T11:25:35.365Z,9.17
2023-04-18T11:35:44.698Z,8.52
2023-04-18T11:45:53.323Z,8.63
2023-04-18T11:55:55.654Z,6.50
2023-04-18T12:06:00.558Z,6.93
2023-04-18T12:16:02.591Z,6.03
2023-04-18T12:26:17.401Z,6.78
2023-04-18T12:36:18.876Z,6.73
2023-04-18T12:46:20.428Z,8.00
2023-04-18T12:56:21.973Z,7.40
2023-04-18T13:06:23.597Z,9.13
2023-04-18T13:16:26.227Z,10.60
2023-04-18T13:36:55.159Z,7.40
2023-04-18T13:47:00.646Z,8.00
2023-04-18T13:57:03.889Z,7.47
2023-04-18T14:07:30.482Z,5.15
2023-04-18T14:17:34.276Z,4.70
2023-04-18T14:27:36.163Z,12.73
2023-04-18T14:37:40.922Z,6.23
2023-04-18T14:48:23.266Z,4.20
2023-04-18T14:58:50.376Z,6.30
2023-04-18T15:09:17.475Z,4.17
2023-04-18T15:19:19.533Z,4.33
2023-04-18T15:29:21.508Z,5.03
2023-04-18T15:39:23.216Z,5.27
2023-04-18T15:49:25.570Z,5.57
2023-04-18T15:59:27.193Z,4.60
2023-04-18T16:09:29.855Z,3.87
2023-04-18T16:19:31.382Z,4.50
2023-04-18T16:29:32.937Z,5.90
2023-04-18T16:39:34.503Z,4.22
2023-04-18T16:49:36.017Z,5.60
2023-04-18T16:59:37.489Z,4.50
2023-04-18T17:09:39.195Z,4.07
2023-04-18T17:19:40.781Z,4.10
2023-04-18T17:29:42.372Z,4.95
2023-04-18T17:39:43.840Z,4.20
2023-04-18T17:49:45.407Z,4.43
2023-04-18T17:59:47.094Z,4.37
2023-04-18T18:09:48.608Z,5.33
2023-04-18T18:19:50.077Z,4.70
2023-04-18T18:29:51.636Z,5.57
2023-04-18T18:39:54.841Z,5.03
2023-04-18T18:49:57.771Z,6.13
2023-04-18T18:59:59.486Z,6.10
2023-04-18T19:10:00.997Z,5.47
2023-04-18T19:20:04.380Z,9.10
2023-04-18T19:30:06.504Z,5.93
2023-04-18T19:40:08.664Z,8.67
2023-04-18T19:50:10.636Z,8.00
2023-04-18T20:00:13.499Z,5.97
2023-04-18T20:10:15.017Z,6.77
2023-04-18T20:20:16.507Z,9.57
2023-04-18T20:30:17.959Z,6.60
2023-04-18T20:40:19.572Z,6.60
2023-04-18T20:50:21.443Z,6.15
2023-04-18T21:00:23.124Z,8.13
2023-04-18T21:10:24.636Z,5.70
2023-04-18T21:20:26.341Z,5.83
2023-04-18T21:30:27.883Z,5.83
2023-04-18T21:40:29.401Z,7.10
2023-04-18T21:50:30.940Z,5.60
2023-04-18T22:00:32.485Z,5.60
2023-04-18T22:10:38.598Z,6.60
2023-04-18T22:20:40.881Z,7.17
2023-04-18T22:30:42.392Z,7.63
2023-04-18T22:40:43.898Z,5.07
2023-04-18T22:50:45.977Z,7.03
2023-04-18T23:00:48.668Z,5.37
2023-04-18T23:10:50.168Z,4.43
2023-04-18T23:20:51.631Z,5.03
2023-04-18T23:30:53.122Z,5.57
2023-04-18T23:40:54.625Z,5.53
2023-04-18T23:50:56.209Z,4.53
